createdAt,value
2022-11-23T00:01:39.700Z,97140.50
2022-11-23T00:03:46.642Z,97170.09
2022-11-23T00:05:54.813Z,97169.34
2022-11-23T00:08:00.591Z,97158.97
2022-11-23T00:10:09.251Z,97151.22
2022-11-23T00:12:14.868Z,97155.75
2022-11-23T00:14:20.403Z,97154.22
2022-11-23T00:16:29.559Z,97165.63
2022-11-23T00:18:35.041Z,97161.44
2022-11-23T00:20:43.153Z,97165.88
2022-11-23T00:22:52.144Z,97173.81
2022-11-23T00:24:57.599Z,97167.03
2022-11-23T00:27:03.984Z,97165.44
2022-11-23T00:29:10.926Z,97162.09
2022-11-23T00:31:22.564Z,97163.94
2022-11-23T00:33:27.981Z,97155.34
2022-11-23T00:35:34.378Z,97176.13
2022-11-23T00:37:39.999Z,97164.22
2022-11-23T00:39:48.310Z,97164.06
2022-11-23T00:41:54.571Z,97157.34
2022-11-23T00:43:59.981Z,97151.66
2022-11-23T00:46:15.451Z,97154.00
2022-11-23T00:48:21.812Z,97155.00
2022-11-23T00:50:27.161Z,97139.91
2022-11-23T00:52:32.661Z,97158.50
2022-11-23T00:54:38.888Z,97156.00
2022-11-23T00:56:48.398Z,97160.34
2022-11-23T00:58:55.392Z,97158.75
2022-11-23T01:01:11.540Z,97156.16
2022-11-23T01:03:17.794Z,97153.66
2022-11-23T01:05:23.135Z,97117.66
2022-11-23T01:07:32.681Z,97154.66
2022-11-23T01:09:38.072Z,97146.84
2022-11-23T01:11:48.022Z,97148.59
2022-11-23T01:13:54.517Z,97074.91
2022-11-23T01:16:00.253Z,97159.84
2022-11-23T01:18:08.097Z,97159.75
2022-11-23T01:20:15.050Z,97155.41
2022-11-23T01:22:20.656Z,97154.50
2022-11-23T01:24:28.289Z,97155.50
2022-11-23T01:26:34.548Z,97156.50
2022-11-23T01:28:44.748Z,97147.84
2022-11-23T01:30:50.354Z,97143.50
2022-11-23T01:32:56.826Z,97150.44
2022-11-23T01:35:04.054Z,97150.31
2022-11-23T01:37:09.698Z,97156.25
2022-11-23T01:39:16.890Z,97154.50
2022-11-23T01:41:26.116Z,97148.31
2022-11-23T01:43:31.640Z,97148.97
2022-11-23T01:45:46.606Z,97153.31
2022-11-23T01:47:52.493Z,97146.47
2022-11-23T01:49:59.014Z,97149.97
2022-11-23T01:52:15.080Z,97161.19
2022-11-23T01:54:28.426Z,97156.75
2022-11-23T01:56:44.644Z,97163.53
2022-11-23T01:58:59.947Z,97156.59
2022-11-23T02:01:10.682Z,97162.72
2022-11-23T02:03:16.906Z,97162.72
2022-11-23T02:05:33.694Z,97165.47
2022-11-23T02:07:39.867Z,97173.09
2022-11-23T02:09:48.014Z,97171.66
2022-11-23T02:11:55.608Z,97159.69
2022-11-23T02:14:04.200Z,97166.53
2022-11-23T02:16:13.187Z,97125.28
2022-11-23T02:18:26.526Z,97164.53
2022-11-23T02:20:33.637Z,97166.22
2022-11-23T02:23:13.642Z,97164.53
2022-11-23T02:25:33.667Z,97170.06
2022-11-23T02:27:47.213Z,97166.69
2022-11-23T02:29:57.150Z,97165.03
2022-11-23T02:32:03.699Z,97164.19
2022-11-23T02:34:10.111Z,97165.03
2022-11-23T02:36:43.783Z,97176.31
2022-11-23T02:38:49.488Z,97175.47
2022-11-23T02:40:55.810Z,97177.25
2022-11-23T02:43:06.668Z,97180.91
2022-11-23T02:45:29.848Z,97181.19
2022-11-23T02:47:36.102Z,97181.38
2022-11-23T02:49:44.994Z,97169.59
2022-11-23T02:51:50.659Z,97176.34
2022-11-23T02:53:57.410Z,97178.19
2022-11-23T02:56:03.692Z,97178.19
2022-11-23T02:58:12.499Z,97174.66
2022-11-23T03:00:20.332Z,97167.78
2022-11-23T03:02:26.489Z,97176.47
2022-11-23T03:04:32.650Z,97166.19
2022-11-23T03:06:39.555Z,97163.50
2022-11-23T03:08:45.831Z,97169.59
2022-11-23T03:10:51.702Z,97159.41
2022-11-23T03:12:59.605Z,97155.50
2022-11-23T03:15:12.145Z,97156.78
2022-11-23T03:17:19.518Z,97155.28
2022-11-23T03:19:25.735Z,97155.41
2022-11-23T03:21:32.167Z,97162.56
2022-11-23T03:23:42.505Z,97159.34
2022-11-23T03:25:59.117Z,97154.31
2022-11-23T03:28:09.920Z,97154.31
2022-11-23T03:30:19.100Z,97152.63
2022-11-23T03:32:25.348Z,97156.97
2022-11-23T03:34:32.587Z,97155.22
2022-11-23T03:36:38.072Z,97161.34
2022-11-23T03:38:44.436Z,97151.13
2022-11-23T03:41:11.690Z,97161.47
2022-11-23T03:43:29.076Z,97133.19
2022-11-23T03:45:39.552Z,97147.59
2022-11-23T03:47:44.904Z,97144.38
2022-11-23T03:49:51.134Z,97146.22
2022-11-23T03:51:57.891Z,97139.38
2022-11-23T03:54:10.011Z,97146.44
2022-11-23T03:56:16.976Z,97148.34
2022-11-23T03:58:25.548Z,97141.63
2022-11-23T04:00:34.100Z,97147.09
2022-11-23T04:02:42.583Z,97155.94
2022-11-23T04:05:10.775Z,97143.75
2022-11-23T04:07:42.126Z,97145.13
2022-11-23T04:09:47.653Z,97132.47
2022-11-23T04:12:03.945Z,97125.59
2022-11-23T04:14:09.858Z,97141.44
2022-11-23T04:16:15.530Z,97143.88
2022-11-23T04:18:24.603Z,97130.09
2022-11-23T04:20:30.534Z,97140.09
2022-11-23T04:22:36.624Z,97145.34
2022-11-23T04:24:42.866Z,97151.53
2022-11-23T04:26:48.275Z,97145.44
2022-11-23T04:28:53.684Z,97148.03
2022-11-23T04:31:00.520Z,97146.19
2022-11-23T04:33:18.666Z,97152.84
2022-11-23T04:35:26.875Z,97154.38
2022-11-23T04:37:33.602Z,97153.38
2022-11-23T04:39:39.108Z,97151.53
2022-11-23T04:42:08.197Z,97153.09
2022-11-23T04:44:14.410Z,97150.50
2022-11-23T04:46:21.600Z,97161.78
2022-11-23T04:48:27.703Z,97158.41
2022-11-23T04:50:40.520Z,97156.72
2022-11-23T04:52:47.789Z,97161.00
2022-11-23T04:54:57.774Z,97155.06
2022-11-23T04:57:06.511Z,97155.22
2022-11-23T04:59:12.986Z,97139.19
2022-11-23T05:01:18.500Z,97148.47
2022-11-23T05:03:46.081Z,97139.94
2022-11-23T05:05:54.334Z,97147.09
2022-11-23T05:08:01.245Z,97147.03
2022-11-23T05:10:23.525Z,97148.94
2022-11-23T05:12:31.133Z,97154.25
2022-11-23T05:14:37.570Z,97144.13
2022-11-23T05:16:44.328Z,97155.09
2022-11-23T05:18:49.856Z,97154.25
2022-11-23T05:20:58.097Z,97148.16
2022-11-23T05:23:06.501Z,97145.50
2022-11-23T05:25:13.695Z,97147.19
2022-11-23T05:27:19.543Z,97140.25
2022-11-23T05:29:25.967Z,97139.47
2022-11-23T05:31:31.447Z,97143.59
2022-11-23T05:33:36.894Z,97150.31
2022-11-23T05:35:44.499Z,97144.13
2022-11-23T05:37:52.752Z,97151.78
2022-11-23T05:39:58.602Z,97149.88
2022-11-23T05:42:06.407Z,97146.22
2022-11-23T05:44:16.534Z,97149.50
2022-11-23T05:46:22.130Z,97144.22
2022-11-23T05:48:28.487Z,97151.41
2022-11-23T05:50:36.494Z,97142.03
2022-11-23T05:53:06.756Z,97151.41
2022-11-23T05:55:14.376Z,97136.00
2022-11-23T05:57:20.257Z,97148.53
2022-11-23T05:59:28.284Z,97143.25
2022-11-23T06:01:39.938Z,97147.44
2022-11-23T06:03:47.379Z,97149.13
2022-11-23T06:05:52.788Z,97152.63
2022-11-23T06:08:11.618Z,97161.19
2022-11-23T06:10:18.974Z,97161.94
2022-11-23T06:12:26.935Z,97140.88
2022-11-23T06:14:33.227Z,97175.81
2022-11-23T06:16:38.849Z,97178.34
2022-11-23T06:19:04.158Z,97186.03
2022-11-23T06:21:11.694Z,97189.47
2022-11-23T06:23:20.239Z,97188.63
2022-11-23T06:25:26.528Z,97037.00
2022-11-23T06:28:15.879Z,97195.69
2022-11-23T06:30:25.220Z,97196.31
2022-11-23T06:32:31.351Z,97190.97
2022-11-23T06:34:38.962Z,97185.78
2022-11-23T06:36:44.588Z,97192.34
2022-11-23T06:38:53.098Z,97188.16
2022-11-23T06:41:04.242Z,97196.53
2022-11-23T06:43:10.617Z,97203.41
2022-11-23T06:45:20.862Z,97197.47
2022-11-23T06:47:31.974Z,97203.56
2022-11-23T06:49:37.408Z,97198.38
2022-11-23T06:51:54.900Z,97197.38
2022-11-23T06:54:04.483Z,97197.25
2022-11-23T06:56:11.438Z,97197.94
2022-11-23T06:58:17.383Z,97190.81
2022-11-23T07:00:24.429Z,97191.56
2022-11-23T07:02:30.977Z,97191.44
2022-11-23T07:04:37.230Z,97219.97
2022-11-23T07:06:47.897Z,97187.03
2022-11-23T07:09:07.527Z,97192.97
2022-11-23T07:11:25.321Z,97186.69
2022-11-23T07:13:30.916Z,97190.28
2022-11-23T07:15:39.592Z,97186.84
2022-11-23T07:18:07.011Z,97191.13
2022-11-23T07:20:16.213Z,97191.13
2022-11-23T07:22:43.544Z,97196.03
2022-11-23T07:25:16.837Z,97196.47
2022-11-23T07:27:41.211Z,97200.44
2022-11-23T07:30:09.330Z,97201.09
2022-11-23T07:32:34.006Z,97210.31
2022-11-23T07:34:39.490Z,97208.50
2022-11-23T07:37:07.627Z,97210.31
2022-11-23T07:39:55.618Z,97214.31
2022-11-23T07:42:41.526Z,97221.44
2022-11-23T07:45:04.219Z,97215.59
2022-11-23T07:47:09.784Z,97224.78
2022-11-23T07:49:34.094Z,97072.41
2022-11-23T07:52:00.584Z,97219.66
2022-11-23T07:54:08.716Z,97221.41
2022-11-23T07:56:14.282Z,97227.31
2022-11-23T07:58:23.243Z,97225.28
2022-11-23T08:00:31.907Z,97203.06
2022-11-23T08:02:37.293Z,97232.78
2022-11-23T08:04:43.570Z,97227.38
2022-11-23T08:06:48.993Z,97223.88
2022-11-23T08:08:55.762Z,97229.91
2022-11-23T08:11:03.778Z,97222.19
2022-11-23T08:13:10.799Z,97213.16
2022-11-23T08:15:19.122Z,97216.34
2022-11-23T08:17:25.532Z,97212.63
2022-11-23T08:19:30.974Z,97219.69
2022-11-23T08:21:36.477Z,97212.06
2022-11-23T08:23:42.732Z,97216.66
2022-11-23T08:25:49.046Z,97223.88
2022-11-23T08:27:59.048Z,97223.88
2022-11-23T08:30:08.578Z,97214.31
2022-11-23T08:32:17.009Z,97219.78
2022-11-23T08:34:22.444Z,97217.19
2022-11-23T08:36:28.807Z,97218.84
2022-11-23T08:38:34.641Z,97214.38
2022-11-23T08:40:40.953Z,97206.44
2022-11-23T08:42:47.222Z,97208.88
2022-11-23T08:44:52.667Z,97197.41
2022-11-23T08:46:58.063Z,97194.81
2022-11-23T08:49:07.895Z,97198.47
2022-11-23T08:51:15.403Z,97206.44
2022-11-23T08:53:21.508Z,97203.59
2022-11-23T08:55:28.289Z,97202.22
2022-11-23T08:57:33.663Z,97201.88
2022-11-23T08:59:39.016Z,97204.75
2022-11-23T09:01:45.526Z,97203.22
2022-11-23T09:03:50.914Z,97208.56
2022-11-23T09:06:03.958Z,96866.44
2022-11-23T09:08:10.364Z,97192.81
2022-11-23T09:10:18.776Z,97199.53
2022-11-23T09:12:24.687Z,97188.31
2022-11-23T09:14:31.744Z,97200.78
2022-11-23T09:16:37.732Z,97200.72
2022-11-23T09:18:43.079Z,97144.53
2022-11-23T09:20:49.482Z,97204.06
2022-11-23T09:22:59.511Z,97196.38
2022-11-23T09:25:10.653Z,97208.00
2022-11-23T09:27:16.889Z,97204.50
2022-11-23T09:29:22.276Z,97199.31
2022-11-23T09:31:35.479Z,97201.06
2022-11-23T09:33:43.031Z,97210.63
2022-11-23T09:35:48.441Z,97188.16
2022-11-23T09:38:03.828Z,97191.00
2022-11-23T09:40:16.357Z,97186.00
2022-11-23T09:42:55.077Z,97189.94
2022-11-23T09:45:33.641Z,97180.97
2022-11-23T09:48:12.316Z,97186.31
2022-11-23T09:50:30.269Z,97182.63
2022-11-23T09:52:38.557Z,97181.81
2022-11-23T09:54:52.993Z,97181.44
2022-11-23T09:57:03.870Z,97140.88
2022-11-23T09:59:28.967Z,97175.00
2022-11-23T10:01:35.337Z,97178.69
2022-11-23T10:03:48.864Z,97174.00
2022-11-23T10:06:09.813Z,97168.03
2022-11-23T10:08:33.985Z,97169.28
2022-11-23T10:10:53.368Z,97175.75
2022-11-23T10:13:23.622Z,97167.38
2022-11-23T10:15:39.096Z,97161.06
2022-11-23T10:18:25.653Z,97158.47
2022-11-23T10:20:55.925Z,97158.16
2022-11-23T10:23:04.781Z,97147.59
2022-11-23T10:25:20.870Z,97147.59
2022-11-23T10:27:34.198Z,97142.56
2022-11-23T10:29:41.837Z,97137.25
2022-11-23T10:31:56.807Z,97142.28
2022-11-23T10:34:15.812Z,97139.44
2022-11-23T10:36:21.200Z,97138.19
2022-11-23T10:38:32.879Z,97141.69
2022-11-23T10:40:48.435Z,97141.69
2022-11-23T10:43:04.580Z,97126.09
2022-11-23T10:45:23.573Z,97135.78
2022-11-23T10:47:44.655Z,97131.69
2022-11-23T10:50:03.688Z,97134.00
2022-11-23T10:52:31.188Z,97127.16
2022-11-23T10:54:43.274Z,97126.22
2022-11-23T10:56:52.774Z,97126.38
2022-11-23T10:59:04.299Z,97125.47
2022-11-23T11:01:19.540Z,97128.06
2022-11-23T11:03:27.752Z,97129.25
2022-11-23T11:06:07.620Z,97116.50
2022-11-23T11:08:15.278Z,97100.09
2022-11-23T11:10:42.067Z,97125.91
2022-11-23T11:12:55.086Z,97123.03
2022-11-23T11:15:18.246Z,97115.22
2022-11-23T11:17:31.401Z,97065.38
2022-11-23T11:19:39.744Z,97125.56
2022-11-23T11:21:46.508Z,97119.53
2022-11-23T11:23:59.288Z,97117.09
2022-11-23T11:26:23.193Z,97115.91
2022-11-23T11:28:39.898Z,97124.09
2022-11-23T11:31:07.820Z,97111.09
2022-11-23T11:33:24.905Z,97116.25
2022-11-23T11:35:40.007Z,97123.44
2022-11-23T11:37:49.276Z,97115.34
2022-11-23T11:40:07.040Z,97108.94
2022-11-23T11:42:24.170Z,97116.31
2022-11-23T11:44:33.149Z,97112.75
2022-11-23T11:46:51.267Z,97105.50
2022-11-23T11:49:07.458Z,97116.56
2022-11-23T11:51:26.896Z,97106.44
2022-11-23T11:53:44.277Z,97113.50
2022-11-23T11:56:03.572Z,97123.56
2022-11-23T11:58:17.341Z,97124.84
2022-11-23T12:00:24.674Z,97125.00
2022-11-23T12:02:43.010Z,97124.81
2022-11-23T12:05:04.057Z,97113.19
2022-11-23T12:07:22.824Z,97098.28
2022-11-23T12:09:45.050Z,97121.75
2022-11-23T12:11:50.844Z,97135.50
2022-11-23T12:14:07.632Z,97130.28
2022-11-23T12:16:28.393Z,97133.09
2022-11-23T12:19:06.937Z,97129.84
2022-11-23T12:21:47.164Z,97138.41
2022-11-23T12:24:15.782Z,97128.50
2022-11-23T12:26:36.519Z,97131.41
2022-11-23T12:29:21.196Z,97130.81
2022-11-23T12:31:46.546Z,97133.41
2022-11-23T12:34:35.789Z,97145.94
2022-11-23T12:37:11.012Z,97139.41
2022-11-23T12:39:54.832Z,97142.56
2022-11-23T12:42:18.513Z,97146.66
2022-11-23T12:44:51.555Z,97147.78
2022-11-23T12:47:12.324Z,97154.13
2022-11-23T12:49:41.856Z,97148.00
2022-11-23T12:52:04.184Z,97155.22
2022-11-23T12:54:35.557Z,97150.03
2022-11-23T12:57:11.246Z,97158.78
2022-11-23T12:59:19.521Z,97158.97
2022-11-23T13:01:34.636Z,97162.31
2022-11-23T13:04:40.643Z,97159.16
2022-11-23T13:08:01.357Z,97168.34
2022-11-23T13:10:43.846Z,97165.81
2022-11-23T13:13:25.610Z,97172.31
2022-11-23T13:16:09.559Z,97169.72
2022-11-23T13:18:35.013Z,97166.50
2022-11-23T13:21:21.299Z,97168.72
2022-11-23T13:23:29.972Z,97157.63
2022-11-23T13:25:36.039Z,97155.59
2022-11-23T13:28:00.996Z,97145.56
2022-11-23T13:30:24.587Z,97164.25
2022-11-23T13:32:57.715Z,97170.47
2022-11-23T13:35:06.508Z,97170.56
2022-11-23T13:37:13.400Z,97169.63
2022-11-23T13:40:08.282Z,97160.16
2022-11-23T13:42:16.026Z,97164.34
2022-11-23T13:44:27.671Z,97167.97
2022-11-23T13:46:40.565Z,97160.78
2022-11-23T13:48:56.639Z,97190.38
2022-11-23T13:51:07.194Z,97161.53
2022-11-23T13:53:28.907Z,97170.00
2022-11-23T13:55:41.976Z,97167.56
2022-11-23T13:58:13.158Z,97111.34
2022-11-23T14:00:51.555Z,97168.53
2022-11-23T14:03:54.251Z,97152.91
2022-11-23T14:06:06.891Z,97164.31
2022-11-23T14:08:17.846Z,97172.84
2022-11-23T14:10:28.676Z,97173.88
2022-11-23T14:12:50.011Z,97181.00
2022-11-23T14:15:12.318Z,97183.59
2022-11-23T14:18:10.620Z,97195.69
2022-11-23T14:20:38.770Z,97155.09
2022-11-23T14:23:23.442Z,97173.34
2022-11-23T14:25:53.039Z,97182.09
2022-11-23T14:28:23.454Z,97193.41
2022-11-23T14:30:56.737Z,97189.16
2022-11-23T14:33:30.743Z,97180.41
2022-11-23T14:35:55.353Z,97178.25
2022-11-23T14:38:37.434Z,97181.97
2022-11-23T14:41:06.672Z,97183.13
2022-11-23T14:43:21.206Z,97192.84
2022-11-23T14:45:34.114Z,97189.25
2022-11-23T14:47:40.448Z,97204.84
2022-11-23T14:49:54.271Z,97204.09
2022-11-23T14:52:01.264Z,97204.25
2022-11-23T14:54:14.100Z,97205.94
2022-11-23T14:56:35.025Z,97205.94
2022-11-23T14:58:44.164Z,97202.59
2022-11-23T15:00:51.043Z,97211.31
2022-11-23T15:03:27.113Z,97211.31
2022-11-23T15:05:38.303Z,97214.81
2022-11-23T15:07:55.582Z,97218.53
2022-11-23T15:10:23.930Z,97221.22
2022-11-23T15:12:32.529Z,97217.78
2022-11-23T15:14:49.362Z,97215.91
2022-11-23T15:16:54.999Z,97223.56
2022-11-23T15:19:00.535Z,97213.00
2022-11-23T15:21:27.304Z,97210.97
2022-11-23T15:23:41.764Z,97214.16
2022-11-23T15:25:56.538Z,97214.81
2022-11-23T15:28:03.690Z,97210.28
2022-11-23T15:30:23.054Z,97213.66
2022-11-23T15:32:34.465Z,97215.66
2022-11-23T15:34:42.136Z,97219.53
2022-11-23T15:36:49.932Z,97223.19
2022-11-23T15:38:58.148Z,97228.59
2022-11-23T15:41:06.348Z,97213.81
2022-11-23T15:43:17.179Z,97211.16
2022-11-23T15:46:03.889Z,97207.44
2022-11-23T15:48:18.633Z,97214.34
2022-11-23T15:50:24.103Z,97201.41
2022-11-23T15:52:37.558Z,97218.59
2022-11-23T15:54:44.525Z,97219.53
2022-11-23T15:56:55.375Z,97222.88
2022-11-23T15:59:06.628Z,97220.28
2022-11-23T16:01:19.004Z,97228.81
2022-11-23T16:03:35.385Z,97229.59
2022-11-23T16:05:41.038Z,97230.50
2022-11-23T16:07:57.805Z,97222.88
2022-11-23T16:10:22.176Z,97228.19
2022-11-23T16:12:31.453Z,97236.97
2022-11-23T16:14:38.029Z,97237.16
2022-11-23T16:16:49.244Z,97234.69
2022-11-23T16:18:58.017Z,97235.81
2022-11-23T16:21:07.876Z,97238.56
2022-11-23T16:23:26.589Z,97241.22
2022-11-23T16:25:37.386Z,97230.94
2022-11-23T16:27:43.737Z,97237.97
2022-11-23T16:29:57.581Z,97231.25
2022-11-23T16:32:28.331Z,97242.50
2022-11-23T16:34:34.757Z,97245.00
2022-11-23T16:36:41.004Z,97249.19
2022-11-23T16:38:46.529Z,97250.19
2022-11-23T16:40:53.744Z,97246.00
2022-11-23T16:42:59.893Z,97247.00
2022-11-23T16:45:10.073Z,97249.00
2022-11-23T16:47:25.896Z,97254.25
2022-11-23T16:49:34.505Z,97245.44
2022-11-23T16:51:40.284Z,97238.88
2022-11-23T16:56:23.386Z,97241.31
2022-11-23T16:58:36.908Z,97244.81
2022-11-23T17:00:43.182Z,97242.47
2022-11-23T17:02:51.746Z,97248.81
2022-11-23T17:04:57.413Z,97246.22
2022-11-23T17:07:03.642Z,97248.06
2022-11-23T17:09:09.816Z,97251.56
2022-11-23T17:11:18.459Z,97246.38
2022-11-23T17:13:29.810Z,97245.38
2022-11-23T17:15:35.158Z,97236.59
2022-11-23T17:17:40.580Z,97240.69
2022-11-23T17:19:50.386Z,97243.22
2022-11-23T17:21:55.769Z,97250.78
2022-11-23T17:24:03.715Z,97254.91
2022-11-23T17:26:29.096Z,97253.72
2022-11-23T17:28:35.470Z,97258.69
2022-11-23T17:30:40.955Z,97256.84
2022-11-23T17:32:47.606Z,97231.59
2022-11-23T17:34:55.868Z,97247.38
2022-11-23T17:37:03.239Z,97248.16
2022-11-23T17:39:10.756Z,97251.66
2022-11-23T17:41:17.055Z,97237.75
2022-11-23T17:43:23.773Z,97246.22
2022-11-23T17:45:30.351Z,97242.72
2022-11-23T17:47:35.960Z,97250.25
2022-11-23T17:49:41.449Z,97255.28
2022-11-23T17:51:50.766Z,97253.44
2022-11-23T17:53:57.086Z,97256.75
2022-11-23T17:56:03.636Z,97259.41
2022-11-23T17:58:13.078Z,97220.63
2022-11-23T18:00:23.633Z,97256.81
2022-11-23T18:02:29.050Z,97259.56
2022-11-23T18:04:35.307Z,97263.09
2022-11-23T18:06:40.937Z,97266.44
2022-11-23T18:08:51.960Z,97271.94
2022-11-23T18:10:59.378Z,97262.91
2022-11-23T18:13:06.615Z,97269.25
2022-11-23T18:15:13.395Z,97261.16
2022-11-23T18:17:22.456Z,97267.28
2022-11-23T18:19:28.004Z,97262.31
2022-11-23T18:21:33.420Z,97262.41
2022-11-23T18:23:40.572Z,97247.56
2022-11-23T18:25:49.512Z,97267.34
2022-11-23T18:27:54.912Z,97265.59
2022-11-23T18:30:03.686Z,97270.03
2022-11-23T18:32:09.841Z,97274.28
2022-11-23T18:34:15.176Z,97265.34
2022-11-23T18:36:21.544Z,97272.91
2022-11-23T18:38:26.934Z,97263.31
2022-11-23T18:40:32.354Z,97258.25
2022-11-23T18:42:41.601Z,97261.00
2022-11-23T18:44:47.180Z,97266.34
2022-11-23T18:46:52.930Z,97268.19
2022-11-23T18:49:00.317Z,97264.84
2022-11-23T18:51:11.913Z,97265.59
2022-11-23T18:53:19.086Z,97266.50
2022-11-23T18:55:25.300Z,97268.88
2022-11-23T18:57:30.665Z,97273.84
2022-11-23T18:59:57.432Z,97277.09
2022-11-23T19:02:04.136Z,97275.94
2022-11-23T19:04:11.036Z,97277.63
2022-11-23T19:06:19.186Z,97268.25
2022-11-23T19:08:25.452Z,97270.16
2022-11-23T19:10:30.807Z,97266.56
2022-11-23T19:12:36.532Z,97258.69
2022-11-23T19:14:49.905Z,97260.50
2022-11-23T19:16:55.688Z,97260.59
2022-11-23T19:19:06.361Z,97203.78
2022-11-23T19:21:18.356Z,97251.63
2022-11-23T19:23:29.423Z,97268.81
2022-11-23T19:25:35.116Z,97255.06
2022-11-23T19:27:41.487Z,97258.50
2022-11-23T19:29:49.827Z,97257.66
2022-11-23T19:31:55.744Z,97263.31
2022-11-23T19:34:06.651Z,97255.84
2022-11-23T19:36:17.622Z,97158.47
2022-11-23T19:38:22.987Z,97255.84
2022-11-23T19:40:29.817Z,97257.44
2022-11-23T19:42:38.545Z,97258.13
2022-11-23T19:44:43.964Z,97254.47
2022-11-23T19:46:53.026Z,97259.66
2022-11-23T19:49:00.173Z,97259.81
2022-11-23T19:51:11.483Z,97264.41
2022-11-23T19:53:17.827Z,97261.94
2022-11-23T19:55:23.224Z,97265.31
2022-11-23T19:57:28.608Z,97262.47
2022-11-23T19:59:35.345Z,97261.66
2022-11-23T20:01:41.163Z,97259.97
2022-11-23T20:03:52.336Z,97258.25
2022-11-23T20:06:01.298Z,97271.19
2022-11-23T20:08:08.970Z,97267.44
2022-11-23T20:10:14.569Z,97278.59
2022-11-23T20:12:21.041Z,97280.09
2022-11-23T20:14:26.534Z,97275.50
2022-11-23T20:16:35.394Z,97284.00
2022-11-23T20:18:42.294Z,97295.06
2022-11-23T20:20:52.084Z,97281.16
2022-11-23T20:22:57.454Z,97288.03
2022-11-23T20:25:03.870Z,97294.75
2022-11-23T20:27:09.451Z,97303.13
2022-11-23T20:29:15.871Z,97285.72
2022-11-23T20:31:25.668Z,97244.94
2022-11-23T20:33:31.085Z,97277.59
2022-11-23T20:35:36.597Z,97286.91
2022-11-23T20:37:45.554Z,97289.38
2022-11-23T20:39:53.100Z,97285.06
2022-11-23T20:41:58.888Z,97288.69
2022-11-23T20:44:12.630Z,97294.63
2022-11-23T20:46:38.175Z,97291.03
2022-11-23T20:48:48.576Z,97299.66
2022-11-23T20:50:54.801Z,97290.28
2022-11-23T20:53:06.972Z,97292.19
2022-11-23T20:55:12.976Z,97287.06
2022-11-23T20:57:19.560Z,97297.47
2022-11-23T20:59:25.674Z,97298.97
2022-11-23T21:01:31.713Z,97302.50
2022-11-23T21:03:39.144Z,97302.50
2022-11-23T21:05:44.580Z,97304.03
2022-11-23T21:07:51.669Z,97299.56
2022-11-23T21:10:00.789Z,97302.16
2022-11-23T21:12:23.877Z,97303.88
2022-11-23T21:14:30.367Z,97301.09
2022-11-23T21:16:37.644Z,97288.59
2022-11-23T21:18:43.075Z,97307.56
2022-11-23T21:20:48.447Z,97312.16
2022-11-23T21:22:55.214Z,97309.72
2022-11-23T21:25:04.057Z,97312.38
2022-11-23T21:27:14.179Z,97310.94
2022-11-23T21:29:21.751Z,97320.72
2022-11-23T21:31:30.265Z,97319.06
2022-11-23T21:33:36.142Z,97325.09
2022-11-23T21:35:42.436Z,97325.91
2022-11-23T21:37:47.823Z,97327.59
2022-11-23T21:39:53.503Z,97328.38
2022-11-23T21:42:03.390Z,97330.97
2022-11-23T21:44:11.532Z,97327.47
2022-11-23T21:46:17.657Z,97327.47
2022-11-23T21:48:23.963Z,97332.50
2022-11-23T21:50:29.508Z,97333.25
2022-11-23T21:52:34.844Z,97330.50
2022-11-23T21:54:47.332Z,97325.31
2022-11-23T21:56:54.285Z,97325.16
2022-11-23T21:59:03.345Z,97326.81
2022-11-23T22:01:14.334Z,97326.66
2022-11-23T22:03:19.824Z,97321.31
2022-11-23T22:05:25.188Z,97333.22
2022-11-23T22:07:31.425Z,97327.78
2022-11-23T22:09:38.181Z,97329.44
2022-11-23T22:11:46.514Z,97340.69
2022-11-23T22:13:57.657Z,97334.50
2022-11-23T22:16:16.160Z,97331.91
2022-11-23T22:18:22.042Z,97339.16
2022-11-23T22:20:28.276Z,97335.47
2022-11-23T22:22:33.607Z,97334.84
2022-11-23T22:24:38.936Z,97326.47
2022-11-23T22:26:45.548Z,97330.91
2022-11-23T22:28:54.476Z,97157.56
2022-11-23T22:30:59.883Z,97328.97
2022-11-23T22:33:11.459Z,97322.16
2022-11-23T22:35:17.241Z,97320.56
2022-11-23T22:37:22.615Z,97317.22
2022-11-23T22:39:28.893Z,97313.00
2022-11-23T22:41:37.929Z,97325.09
2022-11-23T22:43:44.712Z,97326.09
2022-11-23T22:45:51.236Z,97334.09
2022-11-23T22:47:56.799Z,97327.25
2022-11-23T22:50:06.466Z,97332.44
2022-11-23T22:52:12.847Z,97330.59
2022-11-23T22:54:18.321Z,97334.94
2022-11-23T22:56:24.516Z,97329.91
2022-11-23T22:58:31.755Z,97324.09
2022-11-23T23:00:37.099Z,97331.91
2022-11-23T23:02:42.878Z,97328.53
2022-11-23T23:04:49.160Z,97330.22
2022-11-23T23:06:57.878Z,97326.69
2022-11-23T23:09:06.564Z,97324.72
2022-11-23T23:11:13.456Z,97328.06
2022-11-23T23:13:19.654Z,97326.16
2022-11-23T23:15:25.421Z,97330.50
2022-11-23T23:17:32.194Z,97327.91
2022-11-23T23:19:37.581Z,97326.16
2022-11-23T23:21:42.955Z,97334.81
2022-11-23T23:23:55.462Z,97330.50
2022-11-23T23:26:00.818Z,97340.00
2022-11-23T23:28:07.978Z,97341.59
2022-11-23T23:30:14.964Z,97342.28
2022-11-23T23:32:20.298Z,97336.00
2022-11-23T23:34:25.683Z,97344.56
2022-11-23T23:36:32.556Z,97335.31
2022-11-23T23:38:38.441Z,97332.91
2022-11-23T23:40:46.650Z,97325.00
2022-11-23T23:42:52.858Z,97328.50
2022-11-23T23:44:58.294Z,97334.81
2022-11-23T23:47:04.292Z,97328.75
2022-11-23T23:49:10.565Z,97328.69
2022-11-23T23:51:18.690Z,97322.88
2022-11-23T23:53:24.245Z,97321.34
2022-11-23T23:55:30.532Z,97317.25
2022-11-23T23:57:39.185Z,97326.56
2022-11-23T23:59:44.555Z,97322.88
